Record high temperature 38.5°C Record low temperature -6.1°C Record high gust 94.9 km/h Record high average 70.9 km/h Record daily rain 58.2 mm Record low windchill -9.9°C Record high barometer 1045.9 hPa Record low barometer 985.2 hPa
Daily high pressure 1013.2 hPa Daily low pressure 1012.6 hPa Daily low windchill 1.7°C Daily high heat index 4.8°C Daily high gust speed 11.3 kmh NW Daily high average speed 8.9 kmh NW
Stazione meteo Crema centro
ULTIMO RILEVAMENTO ALLE ORE: 01:00 GIORNO: 30 Novembre 2021 prossimo aggiornamento ore: 01:05
Tempo presenteNight time/Dry/Clear Temperatura attuale 4.6°C (40.2°F), temperatura apparente 2.8°C
Temperatura massima (da mezzanotte)4.8°C alle ore: 00:28 Temperatura minima (da mezzanotte)3.7°C alle ore: 00:00
Forza media vento (dieci minuti)0.0 kmh (0.0 kts) Direzione vento (dieci minuti)NW (315°)
Temperatura vento 4.6°C Massima forza (ultima ora)11.3 kmh (6.1 kts) alle ore: 00:25
Massima forza (da mezzanotte)11.3 kmh (6.1 kts) alle ore: 00:25 Massimo vento 1 minuto (da mezzanotte)8.9 kmh (4.8 kts) alle ore: 00:25
Pioggia (ultima ora)0.0 mm Pioggia (da mezzanotte)0.0 mm (0.00 in.)---
Pioggia Questo mese 183.1 mm (7.21 in.) Pioggia Questo anno 629.7 mm (24.79 in.)
Massima pioggia per minuto (ultima ora)0.0 mm/min Massima pioggia per ora (ultime 6 ore)0.0 mm/ore
Pioggia di ieri 0.3 mm DewPoint -6.7°C (Wet Bulb :1.0°C )
Umidita 44 %, Humidex 1.1°C Pressione S.L.M.1013.2 hPa (QNH 1013.2 hPa
Variazione pressione +0.6 hPa (ultima ora) Tendenza (ultime 1 ore)Aumento slowly
Variazione pressione (ultime 12 ore)+10.6 hPa Variazione pressione (ultime 6 ore)+6.0 hPa
Current Solar 0 W/mē
Maximum solar (da mezzanotte) 0 W/mē Minimum solar (da mezzanotte)0 W/mē
Current 00:00 hours of sunshine today, current sky: Night time/Dry/Clear
Sunshine hours for the year: 1759:32 hrs Sunshine hours for the month: 60:29 hrs
Current evapotranspiration rate 0.7 mm per day. Yesterday's reading 0.7

Questa pagina e` aggiornata con i dati della stazione meteo DAVIS VP Premere Reload o Refresh per facilitare la lettura dei dati aggiornati.

Status report of weather station: IK2CHZ - Crema meteo



Weather report/warning/Metars

Milano / Linate, Italy (LIML) 45-26N 009-17E 103M
Nov 29, 2021 - 06:20 PM EST / 2021.11.29 2320 UTC
Wind: from the N (360 degrees) at 6 MPH (5 KT) (direction variable):0
Visibility: greater than 7 mile(s):0
Temperature: 39 F (4 C)
Dew Point: 15 F (-9 C)
Relative Humidity: 38%
Pressure (altimeter): 29.88 in. Hg (1012 hPa)
ob: LIML 292320Z 36005KT 310V030 CAVOK 04/M09 Q1012 NOSIG
cycle: 23
Bergamo / Orio Al Serio, Italy (LIME) 45-40N 009-42E 237M
Nov 29, 2021 - 06:20 PM EST / 2021.11.29 2320 UTC
Wind: Variable at 1 MPH (1 KT):0
Visibility: greater than 7 mile(s):0
Temperature: 32 F (0 C)
Dew Point: 21 F (-6 C)
Relative Humidity: 63%
Pressure (altimeter): 29.85 in. Hg (1011 hPa)
ob: LIME 292320Z VRB01KT CAVOK M00/M06 Q1011 NOSIG
cycle: 23
Piacenza, Italy (LIMS) 44-55N 009-44E 138M
Nov 29, 2021 - 12:55 PM EST / 2021.11.29 1755 UTC
Wind: from the WNW (290 degrees) at 9 MPH (8 KT) (direction variable):0
Visibility: greater than 7 mile(s):0
Temperature: 42 F (6 C)
Dew Point: 26 F (-3 C)
Relative Humidity: 52%
Pressure (altimeter): 29.71 in. Hg (1006 hPa)
ob: LIMS 291755Z 29008KT 260V320 CAVOK 06/M03 Q1006
cycle: 18